createdAt,value
2023-01-30T00:01:26.518Z,29.92
2023-01-30T00:03:54.466Z,27.90
2023-01-30T00:06:22.917Z,29.13
2023-01-30T00:08:50.435Z,28.40
2023-01-30T00:11:20.111Z,27.75
2023-01-30T00:13:53.433Z,29.77
2023-01-30T00:16:21.608Z,28.30
2023-01-30T00:18:50.741Z,28.15
2023-01-30T00:21:18.657Z,28.02
2023-01-30T00:23:46.457Z,28.73
2023-01-30T00:26:14.105Z,25.88
2023-01-30T00:28:42.763Z,25.17
2023-01-30T00:31:10.536Z,28.42
2023-01-30T00:33:39.723Z,26.65
2023-01-30T00:36:07.883Z,29.02
2023-01-30T00:38:35.355Z,24.73
2023-01-30T00:41:02.853Z,29.77
2023-01-30T00:43:49.669Z,26.90
2023-01-30T00:46:51.615Z,25.27
2023-01-30T00:49:20.880Z,23.58
2023-01-30T00:51:49.408Z,29.85
2023-01-30T00:54:16.681Z,23.45
2023-01-30T00:56:43.998Z,25.83
2023-01-30T00:59:11.342Z,26.58
2023-01-30T01:01:39.059Z,25.08
2023-01-30T01:04:08.935Z,26.38
2023-01-30T01:06:38.415Z,24.65
2023-01-30T01:09:07.130Z,24.83
2023-01-30T01:11:35.340Z,24.52
2023-01-30T01:14:05.843Z,22.08
2023-01-30T01:16:35.637Z,25.98
2023-01-30T01:19:04.100Z,23.40
2023-01-30T01:21:31.280Z,23.58
2023-01-30T01:24:00.878Z,23.13
2023-01-30T01:26:28.611Z,27.63
2023-01-30T01:29:00.157Z,24.15
2023-01-30T01:31:27.618Z,25.30
2023-01-30T01:33:57.379Z,25.52
2023-01-30T01:36:52.681Z,24.55
2023-01-30T01:39:17.054Z,26.25
2023-01-30T01:41:44.341Z,24.95
2023-01-30T01:44:17.333Z,25.10
2023-01-30T01:46:55.637Z,26.50
2023-01-30T01:49:30.770Z,27.48
2023-01-30T01:52:08.491Z,26.60
2023-01-30T01:54:52.578Z,26.65
2023-01-30T01:57:32.911Z,26.25
2023-01-30T02:00:13.744Z,23.85
2023-01-30T02:03:09.016Z,24.75
2023-01-30T02:05:47.164Z,22.48
2023-01-30T02:08:23.055Z,23.80
2023-01-30T02:11:42.736Z,24.77
2023-01-30T02:14:13.238Z,25.45
2023-01-30T02:16:42.843Z,24.70
2023-01-30T02:19:57.005Z,21.88
2023-01-30T02:23:05.833Z,29.27
2023-01-30T02:26:01.015Z,36.63
2023-01-30T02:29:19.499Z,25.33
2023-01-30T02:32:42.253Z,24.38
2023-01-30T02:35:33.518Z,23.75
2023-01-30T02:38:06.979Z,24.50
2023-01-30T02:40:52.871Z,25.48
2023-01-30T02:44:05.067Z,26.85
2023-01-30T02:47:02.185Z,26.58
2023-01-30T02:49:51.341Z,22.48
2023-01-30T02:52:22.659Z,23.63
2023-01-30T02:54:50.024Z,21.60
2023-01-30T02:57:24.981Z,23.35
2023-01-30T03:00:01.954Z,23.58
2023-01-30T03:02:46.557Z,23.40
2023-01-30T03:05:36.067Z,23.92
2023-01-30T03:08:15.822Z,22.45
2023-01-30T03:11:01.317Z,25.30
2023-01-30T03:14:15.575Z,23.58
2023-01-30T03:16:44.984Z,23.83
2023-01-30T03:19:14.016Z,22.35
2023-01-30T03:21:45.698Z,23.77
2023-01-30T03:24:14.846Z,22.60
2023-01-30T03:27:02.788Z,24.33
2023-01-30T03:29:30.493Z,24.75
2023-01-30T03:31:58.005Z,25.45
2023-01-30T03:34:28.604Z,25.70
2023-01-30T03:36:56.927Z,25.55
2023-01-30T03:39:27.193Z,25.58
2023-01-30T03:41:55.208Z,24.85
2023-01-30T03:44:23.482Z,23.20
2023-01-30T03:46:53.951Z,21.40
2023-01-30T03:49:22.263Z,22.13
2023-01-30T03:51:49.863Z,24.40
2023-01-30T03:54:17.435Z,23.70
2023-01-30T03:56:44.925Z,20.65
2023-01-30T03:59:16.195Z,22.02
2023-01-30T04:02:01.709Z,23.77
2023-01-30T04:04:29.036Z,20.77
2023-01-30T04:06:57.560Z,23.02
2023-01-30T04:09:25.378Z,19.60
2023-01-30T04:11:53.676Z,20.58
2023-01-30T04:14:21.141Z,19.98
2023-01-30T04:17:07.053Z,21.20
2023-01-30T04:19:53.185Z,17.63
2023-01-30T04:22:20.402Z,19.65
2023-01-30T04:24:48.737Z,20.38
2023-01-30T04:27:16.635Z,19.90
2023-01-30T04:30:04.157Z,18.63
2023-01-30T04:32:31.936Z,18.73
2023-01-30T04:35:00.168Z,19.30
2023-01-30T04:37:27.733Z,19.13
2023-01-30T04:39:55.285Z,18.05
2023-01-30T04:42:27.202Z,19.35
2023-01-30T04:45:13.293Z,20.90
2023-01-30T04:47:40.993Z,20.50
2023-01-30T04:50:09.968Z,20.17
2023-01-30T04:52:39.842Z,16.65
2023-01-30T04:55:09.168Z,17.50
2023-01-30T04:57:37.165Z,16.08
2023-01-30T05:00:06.239Z,18.50
2023-01-30T05:02:36.616Z,19.60
2023-01-30T05:05:04.137Z,17.90
2023-01-30T05:07:31.710Z,18.00
2023-01-30T05:09:58.938Z,15.80
2023-01-30T05:12:26.292Z,17.10
2023-01-30T05:14:53.630Z,16.30
2023-01-30T05:17:20.922Z,15.07
2023-01-30T05:19:48.178Z,17.65
2023-01-30T05:22:15.473Z,17.77
2023-01-30T05:24:42.943Z,16.17
2023-01-30T05:27:10.496Z,15.60
2023-01-30T05:29:37.730Z,17.40
2023-01-30T05:32:05.564Z,15.05
2023-01-30T05:34:33.060Z,16.33
2023-01-30T05:37:00.344Z,14.48
2023-01-30T05:39:27.747Z,17.25
2023-01-30T05:41:55.295Z,15.57
2023-01-30T05:44:26.012Z,16.08
2023-01-30T05:46:53.746Z,15.30
2023-01-30T05:49:21.115Z,18.40
2023-01-30T05:51:50.540Z,15.13
2023-01-30T05:54:18.625Z,16.50
2023-01-30T05:56:50.513Z,15.45
2023-01-30T05:59:21.028Z,16.60
2023-01-30T06:01:48.494Z,13.45
2023-01-30T06:04:15.957Z,14.15
2023-01-30T06:06:43.168Z,15.48
2023-01-30T06:09:11.577Z,13.27
2023-01-30T06:11:39.033Z,15.88
2023-01-30T06:14:06.475Z,14.95
2023-01-30T06:16:33.726Z,14.93
2023-01-30T06:19:08.459Z,16.48
2023-01-30T06:21:35.934Z,12.63
2023-01-30T06:24:03.632Z,17.20
2023-01-30T06:26:31.206Z,13.70
2023-01-30T06:28:58.598Z,14.02
2023-01-30T06:31:25.943Z,14.57
2023-01-30T06:33:53.495Z,14.05
2023-01-30T06:36:20.844Z,14.77
2023-01-30T06:38:48.744Z,15.77
2023-01-30T06:41:16.108Z,14.63
2023-01-30T06:43:43.401Z,14.60
2023-01-30T06:46:10.855Z,28.60
2023-01-30T06:48:44.439Z,18.73
2023-01-30T06:51:11.763Z,16.17
2023-01-30T06:53:39.103Z,19.63
2023-01-30T06:56:10.400Z,15.15
2023-01-30T06:58:38.009Z,17.08
2023-01-30T07:01:05.577Z,13.77
2023-01-30T07:03:32.927Z,21.95
2023-01-30T07:06:00.364Z,14.50
2023-01-30T07:08:27.676Z,22.52
2023-01-30T07:10:55.495Z,17.70
2023-01-30T07:13:22.844Z,15.15
2023-01-30T07:15:50.637Z,17.30
2023-01-30T07:18:18.479Z,14.38
2023-01-30T07:20:49.942Z,13.07
2023-01-30T07:23:18.140Z,15.02
2023-01-30T07:25:45.682Z,67.72
2023-01-30T07:28:13.313Z,17.50
2023-01-30T07:30:40.906Z,14.48
2023-01-30T07:33:08.357Z,13.73
2023-01-30T07:35:38.546Z,13.52
2023-01-30T07:38:06.564Z,14.40
2023-01-30T07:40:34.626Z,15.30
2023-01-30T07:43:09.737Z,12.23
2023-01-30T07:45:48.490Z,14.05
2023-01-30T07:48:19.457Z,15.13
2023-01-30T07:50:47.041Z,13.52
2023-01-30T07:53:18.730Z,12.52
2023-01-30T07:55:46.443Z,12.30
2023-01-30T07:58:19.683Z,13.35
2023-01-30T08:00:47.084Z,13.02
2023-01-30T08:03:17.385Z,11.32
2023-01-30T08:05:48.110Z,11.15
2023-01-30T08:08:16.189Z,12.30
2023-01-30T08:10:49.318Z,12.60
2023-01-30T08:13:17.161Z,17.00
2023-01-30T08:15:44.598Z,13.43
2023-01-30T08:18:12.163Z,12.85
2023-01-30T08:20:39.511Z,16.90
2023-01-30T08:23:06.850Z,13.18
2023-01-30T08:25:35.589Z,11.73
2023-01-30T08:28:07.023Z,12.68
2023-01-30T08:30:34.522Z,12.27
2023-01-30T08:33:01.821Z,11.63
2023-01-30T08:35:29.043Z,13.05
2023-01-30T08:37:56.294Z,12.38
2023-01-30T08:40:23.866Z,17.33
2023-01-30T08:42:51.305Z,15.52
2023-01-30T08:45:18.662Z,14.70
2023-01-30T08:47:46.040Z,11.38
2023-01-30T08:50:13.440Z,11.38
2023-01-30T08:52:40.797Z,12.55
2023-01-30T08:55:09.623Z,10.90
2023-01-30T08:57:37.050Z,12.00
2023-01-30T09:00:06.199Z,10.07
2023-01-30T09:02:33.767Z,12.80
2023-01-30T09:05:01.270Z,12.45
2023-01-30T09:07:29.081Z,11.48
2023-01-30T09:09:56.780Z,9.93
2023-01-30T09:12:24.886Z,10.20
2023-01-30T09:14:58.004Z,9.63
2023-01-30T09:17:25.774Z,10.15
2023-01-30T09:19:53.183Z,10.90
2023-01-30T09:22:20.628Z,11.52
2023-01-30T09:24:48.664Z,9.02
2023-01-30T09:27:16.127Z,9.95
2023-01-30T09:29:46.763Z,7.88
2023-01-30T09:32:14.058Z,8.13
2023-01-30T09:34:41.514Z,10.27
2023-01-30T09:37:08.792Z,9.80
2023-01-30T09:40:01.242Z,9.07
2023-01-30T09:43:07.202Z,8.27
2023-01-30T09:45:44.713Z,8.90
2023-01-30T09:48:30.171Z,9.73
2023-01-30T09:51:44.363Z,8.80
2023-01-30T09:54:29.304Z,9.32
2023-01-30T09:57:22.847Z,10.25
2023-01-30T10:00:17.349Z,7.97
2023-01-30T10:03:01.990Z,9.05
2023-01-30T10:05:49.126Z,8.52
2023-01-30T10:08:53.790Z,11.13
2023-01-30T10:11:48.494Z,9.15
2023-01-30T10:14:46.385Z,9.73
2023-01-30T10:17:52.161Z,9.27
2023-01-30T10:21:00.731Z,11.00
2023-01-30T10:24:14.410Z,9.43
2023-01-30T10:26:44.011Z,9.23
2023-01-30T10:29:37.397Z,8.63
2023-01-30T10:32:27.121Z,7.95
2023-01-30T10:35:05.348Z,7.43
2023-01-30T10:38:13.290Z,7.05
2023-01-30T10:40:52.695Z,7.88
2023-01-30T10:43:41.560Z,8.00
2023-01-30T10:46:54.534Z,8.98
2023-01-30T10:49:56.530Z,7.60
2023-01-30T10:52:52.462Z,7.88
2023-01-30T10:55:39.866Z,6.43
2023-01-30T10:58:33.728Z,6.80
2023-01-30T11:01:26.072Z,7.35
2023-01-30T11:04:04.239Z,9.73
2023-01-30T11:06:35.057Z,7.70
2023-01-30T11:09:04.056Z,8.50
2023-01-30T11:11:55.523Z,8.65
2023-01-30T11:14:27.080Z,6.00
2023-01-30T11:16:57.848Z,7.70
2023-01-30T11:19:34.477Z,6.13
2023-01-30T11:22:05.526Z,7.65
2023-01-30T11:24:46.003Z,7.77
2023-01-30T11:27:32.723Z,5.93
2023-01-30T11:30:18.283Z,5.53
2023-01-30T11:32:51.241Z,4.70
2023-01-30T11:35:30.909Z,6.35
2023-01-30T11:38:35.181Z,5.40
2023-01-30T11:41:20.649Z,5.60
2023-01-30T11:43:48.515Z,4.95
2023-01-30T11:46:34.518Z,5.75
2023-01-30T11:49:45.014Z,6.47
2023-01-30T11:52:19.526Z,6.90
2023-01-30T11:54:49.648Z,7.70
2023-01-30T11:57:20.088Z,5.90
2023-01-30T11:59:59.600Z,5.70
2023-01-30T12:02:49.117Z,6.30
2023-01-30T12:05:35.650Z,5.95
2023-01-30T12:08:31.233Z,5.10
2023-01-30T12:11:03.435Z,6.05
2023-01-30T12:13:45.807Z,5.97
2023-01-30T12:17:05.766Z,6.10
2023-01-30T12:20:18.481Z,6.45
2023-01-30T12:23:06.255Z,6.47
2023-01-30T12:26:03.245Z,5.63
2023-01-30T12:29:13.781Z,6.47
2023-01-30T12:32:14.707Z,7.47
2023-01-30T12:34:45.633Z,7.05
2023-01-30T12:37:41.780Z,6.82
2023-01-30T12:40:20.709Z,7.57
2023-01-30T12:43:31.738Z,8.43
2023-01-30T12:46:21.909Z,7.32
2023-01-30T12:49:43.675Z,7.82
2023-01-30T12:52:59.154Z,6.85
2023-01-30T12:56:01.304Z,10.93
2023-01-30T12:58:57.224Z,8.00
2023-01-30T13:02:03.099Z,10.43
2023-01-30T13:05:16.165Z,7.95
2023-01-30T13:08:33.559Z,9.65
2023-01-30T13:12:03.883Z,10.52
2023-01-30T13:15:30.286Z,8.88
2023-01-30T13:18:44.895Z,7.88
2023-01-30T13:21:45.175Z,8.82
2023-01-30T13:25:06.585Z,8.00
2023-01-30T13:27:40.635Z,8.90
2023-01-30T13:30:18.466Z,8.32
2023-01-30T13:33:12.208Z,9.32
2023-01-30T13:36:04.281Z,9.90
2023-01-30T13:38:39.027Z,11.23
2023-01-30T13:41:15.039Z,9.27
2023-01-30T13:43:52.162Z,10.32
2023-01-30T13:46:29.095Z,10.52
2023-01-30T13:50:42.088Z,12.10
2023-01-30T13:53:39.932Z,10.32
2023-01-30T13:56:43.624Z,10.63
2023-01-30T14:00:10.177Z,12.60
2023-01-30T14:03:03.415Z,11.98
2023-01-30T14:06:02.028Z,12.65
2023-01-30T14:08:59.549Z,9.55
2023-01-30T14:11:57.481Z,10.05
2023-01-30T14:14:33.725Z,11.00
2023-01-30T14:17:12.502Z,10.55
2023-01-30T14:20:14.923Z,9.88
2023-01-30T14:23:05.949Z,10.10
2023-01-30T14:25:48.717Z,10.40
2023-01-30T14:28:16.192Z,10.20
2023-01-30T14:30:55.096Z,10.15
2023-01-30T14:33:22.502Z,8.85
2023-01-30T14:35:58.909Z,9.77
2023-01-30T14:38:38.612Z,10.20
2023-01-30T14:41:07.091Z,11.02
2023-01-30T14:43:43.502Z,10.60
2023-01-30T14:46:19.531Z,10.93
2023-01-30T14:49:05.186Z,11.30
2023-01-30T14:51:45.539Z,8.25
2023-01-30T14:54:13.906Z,10.32
2023-01-30T14:57:01.419Z,8.30
2023-01-30T15:00:03.214Z,10.95
2023-01-30T15:02:53.171Z,9.70
2023-01-30T15:05:34.066Z,8.02
2023-01-30T15:08:22.078Z,6.80
2023-01-30T15:11:15.263Z,7.75
2023-01-30T15:14:22.282Z,7.45
2023-01-30T15:17:25.269Z,14.63
2023-01-30T15:20:21.552Z,6.72
2023-01-30T15:23:35.620Z,7.65
2023-01-30T15:26:39.943Z,7.95
2023-01-30T15:30:03.317Z,9.00
2023-01-30T15:32:34.018Z,6.82
2023-01-30T15:35:17.402Z,8.45
2023-01-30T15:37:54.002Z,6.78
2023-01-30T15:40:31.714Z,8.35
2023-01-30T15:43:35.412Z,12.43
2023-01-30T15:46:34.003Z,9.70
2023-01-30T15:49:59.994Z,9.88
2023-01-30T15:52:52.679Z,6.20
2023-01-30T15:55:35.493Z,9.32
2023-01-30T15:58:17.887Z,8.00
2023-01-30T16:00:59.710Z,8.82
2023-01-30T16:03:40.810Z,8.25
2023-01-30T16:06:33.015Z,7.18
2023-01-30T16:09:24.557Z,7.55
2023-01-30T16:11:52.435Z,8.02
2023-01-30T16:14:22.742Z,7.18
2023-01-30T16:17:06.991Z,8.50
2023-01-30T16:19:38.156Z,9.00
2023-01-30T16:22:19.952Z,8.00
2023-01-30T16:24:54.845Z,7.50
2023-01-30T16:27:30.496Z,9.00
2023-01-30T16:30:07.715Z,9.40
2023-01-30T16:32:36.761Z,8.70
2023-01-30T16:35:28.514Z,8.98
2023-01-30T16:38:00.105Z,7.68
2023-01-30T16:40:47.368Z,8.77
2023-01-30T16:43:24.607Z,7.35
2023-01-30T16:45:54.915Z,6.47
2023-01-30T16:48:33.951Z,8.52
2023-01-30T16:51:04.882Z,7.57
2023-01-30T16:53:33.828Z,7.15
2023-01-30T16:56:12.338Z,8.50
2023-01-30T16:59:21.076Z,9.32
2023-01-30T17:01:49.276Z,9.93
2023-01-30T17:04:23.515Z,7.22
2023-01-30T17:07:04.284Z,8.85
2023-01-30T17:09:42.447Z,8.27
2023-01-30T17:12:31.245Z,11.90
2023-01-30T17:15:13.421Z,7.20
2023-01-30T17:17:41.680Z,7.25
2023-01-30T17:20:12.046Z,8.52
2023-01-30T17:22:45.488Z,8.48
2023-01-30T17:25:35.915Z,8.50
2023-01-30T17:28:03.294Z,6.72
2023-01-30T17:30:31.639Z,8.20
2023-01-30T17:32:58.957Z,9.10
2023-01-30T17:35:26.603Z,7.97
2023-01-30T17:38:04.794Z,8.75
2023-01-30T17:40:38.201Z,8.73
2023-01-30T17:43:11.586Z,6.75
2023-01-30T17:46:12.201Z,6.30
2023-01-30T17:48:45.580Z,8.35
2023-01-30T17:51:14.449Z,6.63
2023-01-30T17:53:45.178Z,7.80
2023-01-30T17:56:29.961Z,8.23
2023-01-30T17:58:57.679Z,8.32
2023-01-30T18:01:25.453Z,8.68
2023-01-30T18:03:52.932Z,8.75
2023-01-30T18:06:27.876Z,8.80
2023-01-30T18:08:57.080Z,8.63
2023-01-30T18:11:25.619Z,9.88
2023-01-30T18:14:06.374Z,9.07
2023-01-30T18:16:35.155Z,7.88
2023-01-30T18:19:09.437Z,8.43
2023-01-30T18:21:40.161Z,8.48
2023-01-30T18:24:08.625Z,9.82
2023-01-30T18:26:35.975Z,9.60
2023-01-30T18:29:04.212Z,9.30
2023-01-30T18:31:34.940Z,8.00
2023-01-30T18:34:02.809Z,9.32
2023-01-30T18:36:35.953Z,7.63
2023-01-30T18:39:06.002Z,7.07
2023-01-30T18:41:35.405Z,7.60
2023-01-30T18:44:06.560Z,11.52
2023-01-30T18:46:38.072Z,26.73
2023-01-30T18:49:09.190Z,8.95
2023-01-30T18:51:36.714Z,15.52
2023-01-30T18:54:04.231Z,13.77
2023-01-30T18:56:34.352Z,11.93
2023-01-30T18:59:06.339Z,11.82
2023-01-30T19:01:39.063Z,10.90
2023-01-30T19:04:10.931Z,11.63
2023-01-30T19:06:43.891Z,7.55
2023-01-30T19:09:18.107Z,11.07
2023-01-30T19:12:04.374Z,8.43
2023-01-30T19:14:32.200Z,9.20
2023-01-30T19:17:03.081Z,8.73
2023-01-30T19:19:31.047Z,10.23
2023-01-30T19:22:01.552Z,8.18
2023-01-30T19:24:31.689Z,8.35
2023-01-30T19:26:59.330Z,7.68
2023-01-30T19:29:26.888Z,10.30
2023-01-30T19:31:54.352Z,10.50
2023-01-30T19:34:22.076Z,9.43
2023-01-30T19:36:49.860Z,11.18
2023-01-30T19:39:17.300Z,9.35
2023-01-30T19:41:44.687Z,12.05
2023-01-30T19:44:12.943Z,10.32
2023-01-30T19:46:40.982Z,11.10
2023-01-30T19:49:08.378Z,10.40
2023-01-30T19:51:36.185Z,10.82
2023-01-30T19:54:11.554Z,9.57
2023-01-30T19:56:47.483Z,10.32
2023-01-30T19:59:16.808Z,8.43
2023-01-30T20:01:47.220Z,9.85
2023-01-30T20:04:14.818Z,12.35
2023-01-30T20:06:49.769Z,9.75
2023-01-30T20:09:17.766Z,10.52
2023-01-30T20:11:45.615Z,9.82
2023-01-30T20:14:15.384Z,9.68
2023-01-30T20:16:48.024Z,8.90
2023-01-30T20:19:17.569Z,12.15
2023-01-30T20:21:48.013Z,9.35
2023-01-30T20:24:17.108Z,10.77
2023-01-30T20:26:48.355Z,9.45
2023-01-30T20:29:17.560Z,7.47
2023-01-30T20:31:45.543Z,10.00
2023-01-30T20:34:15.231Z,9.68
2023-01-30T20:36:42.706Z,10.00
2023-01-30T20:39:10.658Z,10.52
2023-01-30T20:41:39.063Z,11.25
2023-01-30T20:44:12.983Z,12.93
2023-01-30T20:46:46.575Z,8.50
2023-01-30T20:49:19.816Z,12.80
2023-01-30T20:51:51.174Z,10.52
2023-01-30T20:54:22.806Z,11.25
2023-01-30T20:56:54.119Z,14.20
2023-01-30T20:59:28.606Z,12.00
2023-01-30T21:01:58.174Z,9.15
2023-01-30T21:04:26.354Z,10.77
2023-01-30T21:06:56.474Z,10.63
2023-01-30T21:09:24.764Z,10.48
2023-01-30T21:11:53.687Z,8.93
2023-01-30T21:14:26.448Z,9.32
2023-01-30T21:17:03.795Z,10.00
2023-01-30T21:19:35.114Z,9.05
2023-01-30T21:22:09.344Z,9.10
2023-01-30T21:24:42.498Z,9.80
2023-01-30T21:27:10.355Z,11.10
2023-01-30T21:30:04.667Z,10.25
2023-01-30T21:32:42.206Z,11.15
2023-01-30T21:35:12.343Z,9.52
2023-01-30T21:38:07.603Z,8.07
2023-01-30T21:40:55.126Z,12.13
2023-01-30T21:43:23.022Z,9.00
2023-01-30T21:45:58.227Z,10.60
2023-01-30T21:48:43.689Z,11.02
2023-01-30T21:51:13.403Z,10.23
2023-01-30T21:53:40.869Z,10.25
2023-01-30T21:56:08.658Z,9.95
2023-01-30T21:58:36.518Z,10.25
2023-01-30T22:01:07.876Z,10.70
2023-01-30T22:03:43.433Z,9.15
2023-01-30T22:06:12.813Z,12.20
2023-01-30T22:08:41.105Z,11.63
2023-01-30T22:11:20.235Z,10.50
2023-01-30T22:13:48.384Z,9.02
2023-01-30T22:16:21.657Z,10.05
2023-01-30T22:19:03.220Z,12.85
2023-01-30T22:21:37.523Z,8.80
2023-01-30T22:24:09.332Z,10.07
2023-01-30T22:26:38.150Z,10.60
2023-01-30T22:29:06.643Z,10.48
2023-01-30T22:31:38.724Z,11.90
2023-01-30T22:34:07.214Z,10.80
2023-01-30T22:36:35.393Z,13.48
2023-01-30T22:39:05.681Z,12.30
2023-01-30T22:41:36.360Z,10.23
2023-01-30T22:44:09.092Z,8.88
2023-01-30T22:46:41.603Z,8.23
2023-01-30T22:49:10.623Z,10.32
2023-01-30T22:51:41.429Z,11.02
2023-01-30T22:54:17.868Z,11.88
2023-01-30T22:56:48.983Z,9.10
2023-01-30T22:59:16.913Z,9.93
2023-01-30T23:01:50.914Z,11.35
2023-01-30T23:04:24.636Z,14.38
2023-01-30T23:06:52.474Z,9.70
2023-01-30T23:09:25.603Z,10.10
2023-01-30T23:12:16.107Z,10.88
2023-01-30T23:14:43.711Z,9.60
2023-01-30T23:17:30.589Z,10.63
2023-01-30T23:19:58.477Z,9.77
2023-01-30T23:22:26.104Z,12.10
2023-01-30T23:24:53.662Z,12.55
2023-01-30T23:27:21.830Z,9.57
2023-01-30T23:29:49.460Z,10.05
2023-01-30T23:32:20.006Z,9.80
2023-01-30T23:34:51.712Z,11.07
2023-01-30T23:37:39.269Z,13.63
2023-01-30T23:40:08.103Z,13.30
2023-01-30T23:42:35.492Z,10.88
2023-01-30T23:45:03.433Z,8.57
2023-01-30T23:47:30.904Z,10.30
2023-01-30T23:49:58.172Z,10.68
2023-01-30T23:52:25.550Z,10.88
2023-01-30T23:54:52.992Z,13.32
2023-01-30T23:57:20.409Z,11.18
2023-01-30T23:59:47.902Z,9.80
